createdAt,value
2018-07-26T00:00:35.933Z,79.16
2018-07-26T00:03:03.730Z,80.29
2018-07-26T00:05:31.569Z,79.98
2018-07-26T00:07:59.317Z,79.58
2018-07-26T00:10:27.126Z,79.20
2018-07-26T00:12:55.018Z,79.68
2018-07-26T00:15:22.795Z,79.36
2018-07-26T00:17:50.557Z,79.92
2018-07-26T00:20:18.313Z,80.69
2018-07-26T00:22:46.085Z,80.26
2018-07-26T00:25:13.873Z,81.17
2018-07-26T00:27:41.678Z,80.51
2018-07-26T00:30:09.440Z,81.40
2018-07-26T00:32:37.213Z,81.28
2018-07-26T00:35:05.098Z,81.86
2018-07-26T00:37:32.901Z,81.46
2018-07-26T00:40:00.683Z,81.95
2018-07-26T00:42:28.469Z,81.21
2018-07-26T00:44:56.237Z,82.61
2018-07-26T00:47:24.017Z,82.61
2018-07-26T00:49:51.777Z,81.99
2018-07-26T00:52:19.589Z,82.10
2018-07-26T00:54:47.372Z,81.62
2018-07-26T00:57:15.197Z,81.25
2018-07-26T00:59:43.034Z,81.41
2018-07-26T01:02:10.822Z,81.28
2018-07-26T01:04:38.610Z,81.28
2018-07-26T01:07:06.397Z,80.41
2018-07-26T01:09:34.195Z,80.46
2018-07-26T01:12:02.090Z,79.70
2018-07-26T01:14:29.852Z,80.02
2018-07-26T01:16:57.642Z,79.85
2018-07-26T01:19:25.464Z,78.71
2018-07-26T01:21:53.282Z,78.56
2018-07-26T01:24:21.083Z,78.37
2018-07-26T01:26:48.898Z,79.11
2018-07-26T01:29:18.929Z,78.85
2018-07-26T01:31:46.999Z,78.89
2018-07-26T01:34:14.778Z,78.96
2018-07-26T01:36:42.595Z,78.83
2018-07-26T01:39:10.401Z,78.63
2018-07-26T01:41:38.181Z,78.52
2018-07-26T01:44:15.362Z,78.67
2018-07-26T01:46:43.226Z,78.96
2018-07-26T01:49:11.037Z,78.57
2018-07-26T01:51:38.809Z,77.94
2018-07-26T01:54:06.598Z,78.72
2018-07-26T01:56:34.363Z,78.69
2018-07-26T01:59:02.136Z,78.59
2018-07-26T02:01:29.957Z,78.68
2018-07-26T02:03:57.741Z,78.60
2018-07-26T02:06:25.518Z,78.31
2018-07-26T02:08:53.269Z,78.10
2018-07-26T02:11:21.044Z,78.71
2018-07-26T02:13:48.872Z,79.46
2018-07-26T02:16:16.661Z,79.30
2018-07-26T02:18:44.469Z,79.75
2018-07-26T02:21:12.249Z,79.16
2018-07-26T02:23:40.092Z,79.34
2018-07-26T02:26:07.910Z,79.70
2018-07-26T02:28:35.685Z,80.04
2018-07-26T02:31:03.575Z,80.60
2018-07-26T02:33:31.339Z,80.97
2018-07-26T02:35:59.129Z,80.30
2018-07-26T02:38:26.950Z,80.85
2018-07-26T02:40:54.758Z,81.46
2018-07-26T02:43:22.523Z,80.98
2018-07-26T02:45:50.301Z,80.82
2018-07-26T02:48:18.089Z,81.35
2018-07-26T02:50:45.886Z,80.73
2018-07-26T02:53:13.669Z,80.91
2018-07-26T02:55:41.425Z,82.12
2018-07-26T02:58:09.303Z,81.65
2018-07-26T03:00:37.149Z,82.05
2018-07-26T03:03:05.094Z,81.48
2018-07-26T03:05:32.862Z,81.95
2018-07-26T03:08:00.647Z,81.16
2018-07-26T03:10:28.427Z,81.72
2018-07-26T03:12:56.238Z,80.74
2018-07-26T03:15:24.072Z,81.04
2018-07-26T03:17:51.865Z,79.64
2018-07-26T03:20:19.658Z,79.44
2018-07-26T03:22:47.462Z,79.31
2018-07-26T03:25:15.258Z,79.44
2018-07-26T03:27:43.041Z,79.81
2018-07-26T03:30:10.846Z,80.13
2018-07-26T03:32:38.685Z,79.57
2018-07-26T03:35:06.596Z,79.36
2018-07-26T03:37:34.418Z,78.40
2018-07-26T03:40:02.209Z,77.88
2018-07-26T03:42:29.948Z,77.61
2018-07-26T03:44:57.729Z,76.51
2018-07-26T03:47:25.509Z,73.33
2018-07-26T03:49:53.300Z,73.07
2018-07-26T03:52:21.081Z,76.02
2018-07-26T03:54:48.858Z,76.06
2018-07-26T03:57:16.766Z,75.83
2018-07-26T03:59:44.585Z,73.73
2018-07-26T04:02:12.373Z,73.59
2018-07-26T04:04:40.144Z,72.37
2018-07-26T04:07:07.962Z,64.90
2018-07-26T04:09:35.757Z,55.97
2018-07-26T04:12:03.626Z,53.74
2018-07-26T04:14:31.402Z,52.84
2018-07-26T04:16:59.157Z,49.38
2018-07-26T04:19:26.902Z,47.29
2018-07-26T04:21:54.646Z,46.89
2018-07-26T04:24:22.433Z,45.66
2018-07-26T04:26:50.254Z,46.02
2018-07-26T04:29:18.038Z,51.04
2018-07-26T04:31:45.844Z,53.64
2018-07-26T04:34:13.632Z,55.60
2018-07-26T04:36:41.441Z,59.03
2018-07-26T04:39:09.929Z,61.79
2018-07-26T04:41:37.829Z,64.16
2018-07-26T04:44:05.594Z,65.03
2018-07-26T04:46:33.338Z,65.48
2018-07-26T04:49:01.199Z,65.15
2018-07-26T04:51:28.961Z,64.82
2018-07-26T04:53:56.737Z,63.41
2018-07-26T04:56:24.498Z,64.71
2018-07-26T04:58:52.269Z,65.64
2018-07-26T05:01:20.094Z,65.85
2018-07-26T05:03:47.873Z,67.58
2018-07-26T05:06:15.665Z,69.35
2018-07-26T05:08:43.419Z,70.71
2018-07-26T05:11:11.194Z,71.96
2018-07-26T05:13:38.998Z,72.01
2018-07-26T05:16:06.794Z,70.57
2018-07-26T05:18:34.623Z,70.33
2018-07-26T05:21:02.392Z,68.65
2018-07-26T05:23:30.217Z,68.17
2018-07-26T05:25:58.058Z,67.81
2018-07-26T05:28:25.824Z,67.35
2018-07-26T05:30:53.595Z,67.55
2018-07-26T05:33:21.397Z,66.79
2018-07-26T05:35:49.179Z,66.53
2018-07-26T05:38:16.985Z,66.02
2018-07-26T05:40:44.798Z,63.88
2018-07-26T05:43:12.617Z,60.99
2018-07-26T05:45:40.382Z,59.12
2018-07-26T05:48:08.226Z,57.01
2018-07-26T05:50:36.038Z,56.33
2018-07-26T05:53:03.853Z,57.26
2018-07-26T05:55:31.625Z,56.79
2018-07-26T05:57:59.406Z,55.10
2018-07-26T06:00:27.158Z,55.08
2018-07-26T06:02:54.937Z,54.73
2018-07-26T06:05:22.697Z,55.83
2018-07-26T06:07:50.525Z,57.37
2018-07-26T06:10:18.335Z,57.80
2018-07-26T06:12:46.149Z,59.02
2018-07-26T06:15:14.229Z,57.50
2018-07-26T06:17:42.026Z,57.07
2018-07-26T06:20:11.360Z,53.26
2018-07-26T06:22:39.602Z,47.95
2018-07-26T06:25:08.190Z,44.00
2018-07-26T06:27:35.997Z,41.17
2018-07-26T06:30:05.787Z,38.80
2018-07-26T06:32:33.636Z,42.02
2018-07-26T06:35:01.442Z,43.49
2018-07-26T06:37:29.299Z,41.22
2018-07-26T06:39:57.133Z,41.27
2018-07-26T06:42:24.953Z,39.96
2018-07-26T06:44:52.764Z,37.94
2018-07-26T06:47:20.541Z,39.01
2018-07-26T06:49:48.301Z,41.97
2018-07-26T06:52:16.152Z,43.45
2018-07-26T06:54:43.940Z,44.62
2018-07-26T06:57:11.718Z,46.14
2018-07-26T06:59:39.517Z,48.57
2018-07-26T07:02:07.653Z,51.92
2018-07-26T07:04:35.417Z,52.50
2018-07-26T07:07:03.300Z,54.21
2018-07-26T07:09:31.069Z,55.66
2018-07-26T07:11:58.882Z,57.72
2018-07-26T07:14:26.724Z,59.05
2018-07-26T07:16:54.634Z,56.78
2018-07-26T07:19:22.470Z,56.43
2018-07-26T07:21:50.313Z,57.10
2018-07-26T07:24:21.921Z,54.25
2018-07-26T07:26:51.458Z,57.87
2018-07-26T07:29:19.559Z,58.46
2018-07-26T07:31:47.733Z,58.39
2018-07-26T07:34:15.538Z,59.72
2018-07-26T07:36:43.395Z,58.29
2018-07-26T07:39:13.016Z,53.45
2018-07-26T07:41:40.869Z,50.71
2018-07-26T07:44:09.229Z,45.38
2018-07-26T07:46:37.176Z,42.20
2018-07-26T07:49:05.129Z,40.95
2018-07-26T07:51:33.243Z,41.26
2018-07-26T07:54:01.043Z,39.10
2018-07-26T07:56:28.930Z,39.80
2018-07-26T07:58:56.760Z,41.13
2018-07-26T08:01:25.003Z,41.40
2018-07-26T08:03:52.785Z,39.14
2018-07-26T08:06:20.590Z,39.89
2018-07-26T08:08:48.715Z,36.91
2018-07-26T08:11:16.571Z,37.97
2018-07-26T08:13:44.362Z,37.44
2018-07-26T08:16:12.144Z,40.13
2018-07-26T08:18:39.957Z,41.64
2018-07-26T08:21:07.750Z,39.13
2018-07-26T08:23:35.542Z,39.17
2018-07-26T08:26:03.512Z,38.88
2018-07-26T08:28:31.298Z,38.71
2018-07-26T08:30:59.102Z,38.46
2018-07-26T08:33:26.953Z,38.36
2018-07-26T08:35:54.750Z,39.57
2018-07-26T08:38:22.590Z,39.29
2018-07-26T08:40:50.383Z,38.85
2018-07-26T08:43:18.190Z,39.62
2018-07-26T08:45:46.000Z,41.69
2018-07-26T08:48:13.821Z,40.53
2018-07-26T08:50:41.702Z,41.15
2018-07-26T08:53:09.489Z,37.67
2018-07-26T08:55:37.373Z,39.31
2018-07-26T08:58:05.168Z,38.98
2018-07-26T09:00:33.024Z,38.84
2018-07-26T09:03:00.879Z,38.93
2018-07-26T09:05:28.686Z,41.34
2018-07-26T09:07:56.483Z,40.11
2018-07-26T09:10:24.241Z,39.78
2018-07-26T09:12:52.150Z,40.39
2018-07-26T09:15:19.942Z,37.50
2018-07-26T09:17:47.781Z,37.96
2018-07-26T09:20:15.571Z,39.50
2018-07-26T09:22:43.348Z,37.89
2018-07-26T09:25:11.138Z,37.40
2018-07-26T09:27:38.934Z,37.13
2018-07-26T09:30:08.082Z,37.94
2018-07-26T09:32:35.917Z,40.66
2018-07-26T09:35:03.747Z,41.76
2018-07-26T09:37:31.559Z,41.42
2018-07-26T09:39:59.399Z,38.90
2018-07-26T09:42:27.215Z,39.98
2018-07-26T09:44:55.151Z,40.53
2018-07-26T09:47:22.976Z,40.92
2018-07-26T09:49:50.906Z,41.32
2018-07-26T09:52:18.660Z,36.89
2018-07-26T09:54:46.451Z,37.73
2018-07-26T09:57:14.252Z,38.85
2018-07-26T09:59:42.088Z,38.94
2018-07-26T10:02:09.965Z,39.41
2018-07-26T10:04:37.749Z,39.84
2018-07-26T10:07:05.544Z,40.58
2018-07-26T10:09:34.212Z,37.69
2018-07-26T10:12:02.008Z,37.24
2018-07-26T10:14:29.815Z,35.23
2018-07-26T10:16:57.652Z,34.97
2018-07-26T10:19:25.462Z,35.71
2018-07-26T10:21:53.336Z,37.15
2018-07-26T10:24:21.117Z,37.38
2018-07-26T10:26:49.342Z,40.55
2018-07-26T10:29:17.106Z,38.43
2018-07-26T10:31:44.890Z,36.19
2018-07-26T10:34:12.705Z,36.49
2018-07-26T10:36:40.543Z,36.10
2018-07-26T10:39:09.729Z,38.48
2018-07-26T10:41:37.555Z,37.75
2018-07-26T10:44:05.351Z,38.90
2018-07-26T10:46:33.186Z,37.84
2018-07-26T10:49:00.993Z,35.27
2018-07-26T10:51:28.787Z,37.83
2018-07-26T10:53:56.545Z,38.79
2018-07-26T10:56:24.414Z,36.57
2018-07-26T10:58:52.337Z,39.30
2018-07-26T11:01:20.155Z,38.26
2018-07-26T11:03:48.024Z,40.90
2018-07-26T11:06:15.826Z,39.06
2018-07-26T11:08:43.611Z,39.91
2018-07-26T11:11:11.399Z,36.35
2018-07-26T11:13:40.015Z,37.85
2018-07-26T11:16:07.801Z,37.61
2018-07-26T11:18:35.652Z,37.94
2018-07-26T11:21:03.480Z,35.85
2018-07-26T11:23:31.323Z,37.73
2018-07-26T11:25:59.161Z,36.64
2018-07-26T11:28:27.014Z,35.12
2018-07-26T11:30:54.858Z,34.27
2018-07-26T11:33:22.733Z,32.93
2018-07-26T11:35:50.682Z,33.95
2018-07-26T11:38:18.571Z,35.73
2018-07-26T11:40:46.424Z,37.69
2018-07-26T11:43:14.291Z,35.09
2018-07-26T11:45:42.152Z,36.15
2018-07-26T11:48:10.061Z,35.21
2018-07-26T11:50:37.957Z,34.16
2018-07-26T11:53:06.005Z,35.04
2018-07-26T11:55:34.361Z,35.67
2018-07-26T11:58:02.221Z,35.29
2018-07-26T12:00:30.092Z,34.72
2018-07-26T12:02:57.973Z,32.39
2018-07-26T12:05:25.813Z,32.62
2018-07-26T12:07:53.639Z,36.18
2018-07-26T12:10:21.457Z,36.94
2018-07-26T12:12:49.270Z,37.62
2018-07-26T12:15:17.113Z,37.98
2018-07-26T12:17:45.014Z,36.73
2018-07-26T12:20:12.839Z,36.27
2018-07-26T12:22:40.987Z,35.93
2018-07-26T12:25:08.837Z,33.86
2018-07-26T12:27:36.657Z,33.82
2018-07-26T12:30:06.161Z,34.33
2018-07-26T12:32:34.019Z,38.13
2018-07-26T12:35:01.874Z,36.98
2018-07-26T12:37:29.734Z,36.43
2018-07-26T12:39:57.606Z,35.03
2018-07-26T12:42:25.474Z,31.08
2018-07-26T12:44:53.408Z,29.98
2018-07-26T12:47:21.250Z,31.60
2018-07-26T12:49:49.108Z,34.80
2018-07-26T12:52:18.985Z,32.43
2018-07-26T12:54:46.867Z,31.13
2018-07-26T12:57:14.706Z,33.27
2018-07-26T12:59:42.569Z,32.46
2018-07-26T13:02:11.754Z,31.38
2018-07-26T13:04:39.603Z,34.45
2018-07-26T13:07:07.562Z,37.38
2018-07-26T13:09:35.401Z,37.91
2018-07-26T13:12:03.336Z,36.71
2018-07-26T13:14:31.164Z,34.99
2018-07-26T13:16:58.981Z,34.69
2018-07-26T13:19:26.869Z,32.75
2018-07-26T13:21:54.740Z,32.31
2018-07-26T13:24:22.660Z,31.52
2018-07-26T13:26:50.525Z,32.02
2018-07-26T13:29:18.346Z,33.57
2018-07-26T13:31:46.261Z,35.58
2018-07-26T13:34:14.113Z,36.31
2018-07-26T13:36:41.938Z,36.12
2018-07-26T13:39:12.201Z,36.22
2018-07-26T13:41:40.072Z,36.98
2018-07-26T13:44:08.053Z,38.14
2018-07-26T13:46:36.238Z,37.63
2018-07-26T13:49:04.177Z,36.22
2018-07-26T13:51:32.018Z,35.62
2018-07-26T13:54:00.134Z,34.89
2018-07-26T13:56:27.949Z,33.81
2018-07-26T13:58:55.847Z,34.94
2018-07-26T14:01:23.736Z,34.95
2018-07-26T14:03:51.615Z,36.80
2018-07-26T14:06:19.449Z,40.47
2018-07-26T14:08:47.283Z,41.23
2018-07-26T14:11:15.102Z,39.15
2018-07-26T14:13:42.957Z,38.01
2018-07-26T14:16:10.793Z,39.46
2018-07-26T14:18:38.618Z,39.30
2018-07-26T14:21:06.511Z,38.83
2018-07-26T14:23:37.830Z,40.12
2018-07-26T14:26:07.865Z,40.51
2018-07-26T14:28:35.706Z,39.14
2018-07-26T14:31:03.565Z,38.55
2018-07-26T14:33:31.425Z,39.43
2018-07-26T14:35:59.250Z,38.20
2018-07-26T14:38:27.164Z,37.14
2018-07-26T14:40:55.038Z,36.19
2018-07-26T14:43:22.968Z,36.11
2018-07-26T14:45:50.943Z,35.83
2018-07-26T14:48:18.864Z,35.22
2018-07-26T14:50:46.803Z,34.83
2018-07-26T14:53:14.708Z,35.21
2018-07-26T14:55:42.745Z,34.00
2018-07-26T14:58:10.641Z,34.90
2018-07-26T15:00:38.558Z,34.51
2018-07-26T15:03:06.455Z,34.36
2018-07-26T15:05:34.321Z,34.08
2018-07-26T15:08:02.204Z,33.27
2018-07-26T15:10:30.127Z,34.30
2018-07-26T15:12:58.005Z,36.80
2018-07-26T15:15:25.868Z,38.77
2018-07-26T15:17:53.758Z,39.08
2018-07-26T15:20:21.679Z,38.78
2018-07-26T15:22:49.552Z,39.05
2018-07-26T15:25:22.910Z,39.68
2018-07-26T15:27:50.833Z,38.39
2018-07-26T15:30:18.930Z,38.40
2018-07-26T15:32:46.828Z,38.08
2018-07-26T15:35:14.738Z,37.09
2018-07-26T15:37:42.730Z,37.56
2018-07-26T15:40:10.799Z,37.96
2018-07-26T15:42:38.733Z,41.51
2018-07-26T15:45:06.670Z,43.16
2018-07-26T15:47:34.639Z,44.15
2018-07-26T15:50:02.553Z,43.91
2018-07-26T15:52:30.522Z,43.39
2018-07-26T15:54:58.504Z,44.11
2018-07-26T15:57:26.426Z,43.33
2018-07-26T15:59:54.360Z,45.07
2018-07-26T16:02:22.214Z,47.25
2018-07-26T16:04:50.100Z,49.58
2018-07-26T16:07:18.038Z,47.01
2018-07-26T16:09:46.178Z,46.38
2018-07-26T16:12:14.070Z,46.41
2018-07-26T16:14:41.956Z,45.71
2018-07-26T16:17:09.853Z,46.06
2018-07-26T16:19:37.793Z,47.64
2018-07-26T16:22:05.961Z,47.46
2018-07-26T16:24:33.842Z,48.54
2018-07-26T16:27:01.900Z,47.87
2018-07-26T16:29:29.837Z,48.69
2018-07-26T16:31:57.881Z,48.15
2018-07-26T16:34:25.785Z,48.35
2018-07-26T16:36:53.977Z,50.18
2018-07-26T16:39:21.826Z,50.37
2018-07-26T16:41:49.681Z,50.50
2018-07-26T16:44:17.535Z,51.43
2018-07-26T16:46:45.375Z,52.43
2018-07-26T16:49:13.360Z,52.78
2018-07-26T16:51:41.305Z,53.62
2018-07-26T16:54:09.161Z,54.38
2018-07-26T16:56:37.059Z,54.65
2018-07-26T16:59:04.947Z,54.46
2018-07-26T17:01:32.853Z,54.72
2018-07-26T17:04:00.845Z,55.23
2018-07-26T17:06:28.733Z,55.29
2018-07-26T17:08:56.612Z,54.63
2018-07-26T17:11:24.476Z,55.37
2018-07-26T17:13:52.330Z,54.29
2018-07-26T17:16:20.223Z,55.34
2018-07-26T17:18:48.214Z,55.47
2018-07-26T17:21:16.078Z,55.32
2018-07-26T17:23:44.055Z,55.20
2018-07-26T17:26:11.959Z,55.29
2018-07-26T17:28:39.916Z,54.58
2018-07-26T17:31:07.870Z,54.33
2018-07-26T17:33:36.320Z,54.21
2018-07-26T17:36:04.306Z,54.61
2018-07-26T17:38:32.219Z,54.67
2018-07-26T17:41:00.141Z,54.18
2018-07-26T17:43:28.042Z,54.85
2018-07-26T17:45:55.909Z,56.07
2018-07-26T17:48:23.818Z,56.35
2018-07-26T17:50:51.709Z,56.43
2018-07-26T17:53:19.582Z,56.54
2018-07-26T17:55:47.497Z,56.35
2018-07-26T17:58:15.378Z,56.14
2018-07-26T18:00:43.246Z,55.84
2018-07-26T18:03:11.122Z,55.28
2018-07-26T18:05:39.023Z,55.46
2018-07-26T18:08:06.997Z,55.41
2018-07-26T18:10:34.911Z,55.23
2018-07-26T18:13:02.889Z,54.76
2018-07-26T18:15:30.742Z,54.89
2018-07-26T18:17:58.648Z,55.17
2018-07-26T18:20:26.596Z,55.93
2018-07-26T18:22:54.521Z,56.72
2018-07-26T18:25:22.379Z,59.19
2018-07-26T18:27:50.258Z,61.31
2018-07-26T18:30:18.162Z,62.18
2018-07-26T18:32:46.141Z,62.28
2018-07-26T18:35:14.056Z,63.64
2018-07-26T18:37:42.001Z,64.68
2018-07-26T18:40:09.933Z,64.63
2018-07-26T18:42:37.944Z,65.00
2018-07-26T18:45:07.283Z,65.12
2018-07-26T18:47:35.237Z,64.32
2018-07-26T18:50:03.340Z,64.05
2018-07-26T18:52:31.191Z,64.70
2018-07-26T18:54:59.082Z,65.82
2018-07-26T18:57:26.948Z,65.49
2018-07-26T18:59:54.853Z,67.20
2018-07-26T19:02:22.774Z,68.29
2018-07-26T19:04:50.724Z,69.37
2018-07-26T19:07:18.671Z,70.61
2018-07-26T19:09:46.556Z,70.98
2018-07-26T19:12:14.509Z,70.98
2018-07-26T19:14:42.395Z,71.16
2018-07-26T19:17:10.456Z,69.71
2018-07-26T19:19:38.360Z,69.58
2018-07-26T19:22:06.753Z,69.77
2018-07-26T19:24:34.746Z,69.60
2018-07-26T19:27:02.989Z,69.11
2018-07-26T19:29:30.869Z,68.69
2018-07-26T19:31:58.752Z,68.30
2018-07-26T19:34:26.677Z,67.62
2018-07-26T19:36:54.610Z,66.28
2018-07-26T19:39:22.587Z,66.86
2018-07-26T19:41:50.625Z,66.49
2018-07-26T19:44:18.556Z,65.59
2018-07-26T19:46:46.496Z,66.07
2018-07-26T19:49:14.447Z,65.98
2018-07-26T19:51:42.306Z,65.03
2018-07-26T19:54:10.226Z,65.23
2018-07-26T19:56:38.134Z,67.13
2018-07-26T19:59:06.116Z,67.62
2018-07-26T20:01:34.038Z,67.75
2018-07-26T20:04:01.953Z,68.38
2018-07-26T20:06:30.165Z,68.25
2018-07-26T20:08:58.105Z,68.48
2018-07-26T20:11:25.988Z,67.63
2018-07-26T20:13:53.862Z,67.74
2018-07-26T20:16:21.710Z,68.04
2018-07-26T20:18:49.560Z,67.36
2018-07-26T20:21:17.490Z,66.64
2018-07-26T20:23:45.373Z,66.67
2018-07-26T20:26:13.298Z,65.38
2018-07-26T20:28:41.233Z,65.78
2018-07-26T20:31:09.117Z,66.03
2018-07-26T20:33:37.084Z,67.27
2018-07-26T20:36:05.090Z,68.31
2018-07-26T20:38:32.953Z,69.33
2018-07-26T20:41:00.818Z,70.01
2018-07-26T20:43:28.732Z,70.01
2018-07-26T20:45:56.646Z,68.93
2018-07-26T20:48:24.629Z,68.17
2018-07-26T20:50:52.497Z,68.61
2018-07-26T20:53:20.391Z,68.06
2018-07-26T20:55:48.276Z,67.88
2018-07-26T20:58:16.181Z,67.54
2018-07-26T21:00:44.106Z,67.97
2018-07-26T21:03:11.982Z,68.41
2018-07-26T21:05:39.828Z,68.51
2018-07-26T21:08:07.704Z,70.00
2018-07-26T21:10:36.603Z,71.03
2018-07-26T21:13:04.488Z,70.98
2018-07-26T21:15:32.434Z,71.04
2018-07-26T21:18:00.335Z,70.99
2018-07-26T21:20:28.206Z,69.12
2018-07-26T21:22:56.093Z,70.24
2018-07-26T21:25:23.933Z,69.48
2018-07-26T21:27:51.849Z,70.99
2018-07-26T21:30:19.713Z,71.11
2018-07-26T21:32:47.623Z,71.29
2018-07-26T21:35:15.547Z,71.17
2018-07-26T21:37:43.425Z,71.21
2018-07-26T21:40:11.258Z,71.45
2018-07-26T21:42:39.143Z,71.38
2018-07-26T21:45:07.094Z,71.15
2018-07-26T21:47:34.963Z,70.54
2018-07-26T21:50:02.931Z,71.35
2018-07-26T21:52:30.863Z,70.57
2018-07-26T21:54:58.698Z,70.30
2018-07-26T21:57:26.673Z,69.67
2018-07-26T21:59:54.513Z,69.73
2018-07-26T22:02:22.457Z,69.90
2018-07-26T22:04:50.364Z,70.81
2018-07-26T22:07:18.268Z,69.80
2018-07-26T22:09:46.119Z,69.62
2018-07-26T22:12:13.989Z,70.32
2018-07-26T22:14:41.836Z,70.91
2018-07-26T22:17:09.946Z,71.27
2018-07-26T22:19:37.820Z,71.25
2018-07-26T22:22:05.687Z,72.32
2018-07-26T22:24:33.550Z,71.00
2018-07-26T22:27:01.390Z,70.48
2018-07-26T22:29:29.238Z,71.12
2018-07-26T22:31:57.127Z,71.54
2018-07-26T22:34:24.951Z,71.01
2018-07-26T22:36:52.865Z,70.27
2018-07-26T22:39:20.727Z,70.03
2018-07-26T22:41:48.594Z,69.77
2018-07-26T22:44:16.483Z,70.34
2018-07-26T22:46:44.381Z,70.07
2018-07-26T22:49:12.251Z,70.57
2018-07-26T22:51:40.126Z,70.67
2018-07-26T22:54:08.001Z,70.97
2018-07-26T22:56:35.902Z,71.67
2018-07-26T22:59:03.832Z,71.72
2018-07-26T23:01:31.744Z,71.12
2018-07-26T23:03:59.626Z,71.23
2018-07-26T23:06:27.687Z,71.21
2018-07-26T23:08:55.528Z,72.10
2018-07-26T23:11:23.377Z,72.47
2018-07-26T23:13:51.277Z,73.87
2018-07-26T23:16:19.114Z,72.82
2018-07-26T23:18:47.005Z,73.31
2018-07-26T23:21:14.894Z,73.55
2018-07-26T23:23:42.733Z,73.04
2018-07-26T23:26:10.686Z,73.78
2018-07-26T23:28:38.533Z,72.49
2018-07-26T23:31:06.580Z,72.82
2018-07-26T23:33:34.422Z,74.58
2018-07-26T23:36:02.280Z,76.84
2018-07-26T23:38:30.141Z,76.83
2018-07-26T23:40:57.973Z,76.66
2018-07-26T23:43:25.835Z,77.13
2018-07-26T23:45:53.700Z,77.55
2018-07-26T23:48:21.556Z,78.12
2018-07-26T23:50:49.467Z,77.53
2018-07-26T23:53:17.310Z,77.33
2018-07-26T23:55:45.170Z,76.31
2018-07-26T23:58:13.036Z,76.13
